Time;durP1;ratioP1;P1;durP2;ratioP2;P2;SDS_P1;SDS_P2;PMS_P1;PMS_P2;Temp;Humidity;BMP_temperature;BMP_pressure;BME280_temperature;BME280_humidity;BME280_pressure;Samples;Min_cycle;Max_cycle;Signal;HPM_P1;HPM_P2
2022/04/01 00:02:11;;;;;;;29.30;26.30;;;4.80;1.00;4.90;98704.00;;;;4998559;28;20455;-78
2022/04/01 00:04:40;;;;;;;26.97;24.07;;;4.70;1.00;4.80;98709.00;;;;4997299;28;20458;-79
2022/04/01 00:07:09;;;;;;;26.60;23.80;;;4.70;1.00;4.80;98665.00;;;;4995847;28;20508;-77
2022/04/01 00:09:38;;;;;;;22.60;20.30;;;4.70;1.00;4.80;98707.00;;;;5001607;28;20469;-76
2022/04/01 00:12:08;;;;;;;27.10;24.37;;;4.70;1.00;4.80;98698.00;;;;5003162;28;20451;-75
2022/04/01 00:14:36;;;;;;;26.60;23.90;;;4.70;1.00;4.80;98705.00;;;;5015728;28;20549;-76
2022/04/01 00:17:06;;;;;;;24.73;22.37;;;4.70;1.00;4.80;98704.00;;;;5013583;28;20475;-78
2022/04/01 00:19:34;;;;;;;27.10;24.50;;;4.60;1.00;4.80;98689.00;;;;5002158;28;20462;-78
2022/04/01 00:22:04;;;;;;;26.17;23.60;;;4.60;1.00;4.80;98705.00;;;;4998704;28;20464;-78
2022/04/01 00:24:34;;;;;;;27.10;24.40;;;4.60;1.00;4.80;98681.00;;;;4992631;28;20475;-78
2022/04/01 00:27:02;;;;;;;26.87;24.37;;;4.60;1.00;4.90;98694.00;;;;4994326;28;20482;-78
2022/04/01 00:29:31;;;;;;;26.60;24.10;;;4.70;1.00;4.80;98692.00;;;;4993947;28;20457;-77
2022/04/01 00:32:00;;;;;;;26.10;23.50;;;4.60;1.00;4.80;98686.00;;;;4993432;28;20443;-78
2022/04/01 00:34:31;;;;;;;26.77;24.17;;;4.60;1.00;4.70;98692.00;;;;5009408;28;20952;-80
2022/04/01 00:37:02;;;;;;;22.73;20.43;;;4.50;1.00;4.70;98695.00;;;;4992406;28;20486;-79
2022/04/01 00:39:31;;;;;;;24.20;21.70;;;4.50;1.00;217.30;158687.00;;;;4991945;28;20443;-78
2022/04/01 00:42:04;;;;;;;24.83;22.53;;;4.50;1.00;4.70;98693.00;;;;4974277;28;20461;-77
2022/04/01 00:44:36;;;;;;;25.43;22.97;;;4.50;1.00;4.60;98694.00;;;;4990279;28;20455;-78
2022/04/01 00:47:08;;;;;;;24.60;22.40;;;4.40;1.00;4.70;98692.00;;;;4988057;28;20485;-79
2022/04/01 00:49:37;;;;;;;25.77;23.37;;;4.70;1.00;4.80;98697.00;;;;4989342;28;20568;-79
2022/04/01 00:52:09;;;;;;;24.80;22.40;;;4.50;1.00;4.80;98693.00;;;;4990854;28;20453;-78
2022/04/01 00:54:39;;;;;;;24.43;22.00;;;4.60;1.00;4.80;98701.00;;;;4987228;28;20482;-79
2022/04/01 00:57:13;;;;;;;26.30;23.80;;;4.60;1.00;4.80;98705.00;;;;4987696;28;20485;-80
2022/04/01 00:59:43;;;;;;;23.07;20.90;;;4.60;1.00;4.70;98565.00;;;;5009533;28;20469;-79
2022/04/01 01:02:16;;;;;;;23.77;21.47;;;4.50;1.00;4.80;98700.00;;;;4991135;28;20951;-80
2022/04/01 01:04:45;;;;;;;23.57;21.30;;;4.50;1.00;4.80;98702.00;;;;4988696;28;20756;-79
2022/04/01 01:07:15;;;;;;;25.43;22.90;;;4.60;1.00;4.70;98684.00;;;;4991400;28;20488;-77
2022/04/01 01:09:44;;;;;;;23.83;21.67;;;4.60;1.00;4.80;98701.00;;;;4989843;28;20473;-79
2022/04/01 01:12:13;;;;;;;21.20;19.17;;;4.80;1.00;4.80;98694.00;;;;4986853;28;20463;-81
2022/04/01 01:14:44;;;;;;;23.63;21.47;;;4.60;1.00;4.80;98709.00;;;;4992081;28;20480;-81
2022/04/01 01:17:14;;;;;;;23.57;21.37;;;4.60;1.00;4.80;98701.00;;;;4978169;28;20479;-78
2022/04/01 01:19:45;;;;;;;24.37;21.87;;;4.50;1.00;4.80;98697.00;;;;4988289;28;20501;-79
2022/04/01 01:22:15;;;;;;;23.77;21.57;;;4.60;1.00;4.90;98699.00;;;;4988015;28;20499;-79
2022/04/01 01:24:45;;;;;;;23.17;20.77;;;4.70;1.00;4.70;98684.00;;;;4993653;28;20842;-80
2022/04/01 01:27:14;;;;;;;23.50;21.30;;;4.60;1.00;4.80;98686.00;;;;4987869;28;20948;-79
2022/04/01 01:29:45;;;;;;;22.27;20.17;;;4.60;1.00;4.70;98687.00;;;;4989692;28;20469;-78
2022/04/01 01:32:19;;;;;;;23.53;21.33;;;4.50;1.00;4.70;98678.00;;;;4992472;28;20986;-79
2022/04/01 01:34:47;;;;;;;24.57;22.17;;;4.50;1.00;4.70;98684.00;;;;4980374;28;20478;-78
2022/04/01 01:37:16;;;;;;;21.20;19.10;;;4.50;1.00;4.80;98690.00;;;;4971153;28;20470;-78
2022/04/01 01:39:46;;;;;;;22.30;20.30;;;4.60;1.00;4.70;98685.00;;;;4986810;28;20447;-78
2022/04/01 01:42:16;;;;;;;23.87;21.60;;;4.50;1.00;4.70;98695.00;;;;4995690;28;20465;-78
2022/04/01 01:44:45;;;;;;;23.10;21.00;;;4.50;1.00;4.80;98684.00;;;;4995740;28;20466;-79
2022/04/01 01:47:13;;;;;;;23.83;21.53;;;4.60;1.00;4.80;98676.00;;;;5012138;28;20532;-80
2022/04/01 01:54:43;;;;;;;22.77;20.67;;;4.60;1.00;4.80;98677.00;;;;5013097;28;20457;-80
2022/04/01 01:55:18;;;;;;;21.20;19.30;;;4.50;1.00;4.80;98692.00;;;;5014221;28;20493;-80
2022/04/01 01:57:47;;;;;;;21.50;19.50;;;4.50;1.00;4.70;98685.00;;;;5017809;28;20442;-79
2022/04/01 02:00:20;;;;;;;20.17;18.27;;;4.50;1.00;4.70;98700.00;;;;5018801;28;20470;-79
2022/04/01 02:02:49;;;;;;;23.90;21.67;;;4.50;1.00;4.70;98680.00;;;;5019700;28;20469;-80
2022/04/01 02:05:17;;;;;;;23.87;21.60;;;4.50;1.00;4.80;98692.00;;;;5019577;28;20910;-80
2022/04/01 02:07:47;;;;;;;22.33;20.23;;;4.50;1.00;4.90;98685.00;;;;5022469;28;20489;-79
2022/04/01 02:10:15;;;;;;;22.43;20.33;;;4.80;1.00;4.90;98682.00;;;;5025536;28;20437;-80
2022/04/01 02:12:45;;;;;;;20.80;18.80;;;4.70;1.00;4.80;98687.00;;;;5009414;28;20447;-80
2022/04/01 02:15:14;;;;;;;22.47;20.30;;;4.60;1.00;4.70;98681.00;;;;5011331;28;20493;-80
2022/04/01 02:17:42;;;;;;;21.90;19.80;;;4.60;1.00;4.80;98685.00;;;;5028690;28;20454;-81
2022/04/01 02:20:11;;;;;;;20.97;18.97;;;4.60;1.00;4.80;98684.00;;;;5018230;28;20451;-79
2022/04/01 02:22:40;;;;;;;21.27;19.37;;;4.60;1.00;4.80;98684.00;;;;5035243;28;20450;-80
2022/04/01 02:25:11;;;;;;;20.00;18.10;;;4.50;1.00;4.70;98694.00;;;;5012490;28;20435;-81
2022/04/01 02:27:42;;;;;;;21.20;19.20;;;4.50;1.00;4.70;98689.00;;;;5023578;28;20517;-81
2022/04/01 02:30:12;;;;;;;22.93;20.83;;;4.50;1.00;4.80;98700.00;;;;5020374;28;20462;-81
2022/04/01 02:33:10;;;;;;;23.40;21.20;;;4.60;1.00;4.70;98697.00;;;;4988151;28;20688;-80
2022/04/01 02:35:44;;;;;;;20.23;18.33;;;4.60;1.00;4.70;98701.00;;;;5035460;28;20484;-80
2022/04/01 02:38:13;;;;;;;21.10;19.30;;;4.60;1.00;4.70;98686.00;;;;5036257;28;20467;-80
2022/04/01 02:40:41;;;;;;;20.30;18.40;;;4.70;1.00;4.70;98693.00;;;;5021946;28;20441;-81
2022/04/01 02:43:10;;;;;;;20.47;18.67;;;4.50;1.00;4.60;98706.00;;;;5015376;28;20454;-80
2022/04/01 02:45:41;;;;;;;20.80;18.80;;;4.50;1.00;4.60;98697.00;;;;5006565;28;20517;-81
2022/04/01 02:48:10;;;;;;;20.63;18.80;;;4.40;1.00;4.60;98699.00;;;;5016034;28;20860;-80
2022/04/01 02:50:59;;;;;;;16.13;14.53;;;4.50;1.00;4.60;98689.00;;;;5015947;28;20450;-79
2022/04/01 02:53:27;;;;;;;22.10;20.10;;;4.50;1.00;4.60;98702.00;;;;5035576;28;20461;-81
2022/04/01 02:55:56;;;;;;;19.03;17.13;;;4.40;1.00;4.60;98701.00;;;;5023108;28;20481;-80
2022/04/01 02:58:24;;;;;;;21.77;19.77;;;4.40;1.00;4.60;98707.00;;;;5022299;28;20470;-80
2022/04/01 03:00:55;;;;;;;21.53;19.53;;;4.60;1.00;4.50;98694.00;;;;5015449;28;20462;-78
2022/04/01 03:03:24;;;;;;;21.00;19.03;;;4.30;1.00;4.70;98707.00;;;;5013301;28;20469;-79
2022/04/01 03:05:54;;;;;;;20.60;18.60;;;4.40;1.00;4.70;98698.00;;;;5012816;28;20494;-78
2022/04/01 03:08:23;;;;;;;21.00;19.10;;;4.40;1.00;4.70;98710.00;;;;4999410;28;20466;-78
2022/04/01 03:10:51;;;;;;;19.70;17.90;;;4.40;1.00;4.70;98716.00;;;;4997929;28;20451;-77
2022/04/01 03:13:19;;;;;;;20.77;18.97;;;4.50;1.00;4.50;98711.00;;;;4997600;28;20478;-79
2022/04/01 03:15:58;;;;;;;20.70;18.90;;;4.40;1.00;4.60;98701.00;;;;5009929;28;20509;-80
2022/04/01 03:18:49;;;;;;;19.50;17.70;;;4.40;1.00;4.50;98716.00;;;;5002472;28;20538;-78
2022/04/01 03:21:17;;;;;;;20.07;18.17;;;4.40;1.00;4.70;98710.00;;;;5007889;28;20454;-80
2022/04/01 03:23:47;;;;;;;20.50;18.30;;;4.40;1.00;4.70;98702.00;;;;5009175;28;20440;-81
2022/04/01 03:26:20;;;;;;;19.47;17.60;;;4.40;1.00;4.70;98695.00;;;;5002000;28;20498;-77
2022/04/01 03:29:00;;;;;;;19.00;17.13;;;4.50;1.00;4.50;98709.00;;;;4994049;28;20451;-78
2022/04/01 03:31:31;;;;;;;19.10;17.40;;;4.40;1.00;4.60;98707.00;;;;4999589;28;20461;-77
2022/04/01 03:34:02;;;;;;;18.03;16.40;;;4.40;1.00;4.60;98710.00;;;;4996335;28;20511;-78
2022/04/01 03:36:31;;;;;;;16.67;15.17;;;4.40;1.00;4.50;98710.00;;;;4999345;28;20621;-78
2022/04/01 03:39:00;;;;;;;18.30;16.50;;;4.30;1.00;4.60;98710.00;;;;5011136;28;20446;-77
2022/04/01 03:41:37;;;;;;;19.20;17.40;;;4.30;1.00;4.60;98713.00;;;;5031023;28;20674;-78
2022/04/01 03:44:09;;;;;;;17.33;15.70;;;4.40;1.00;4.60;98707.00;;;;5008382;28;20564;-78
2022/04/01 03:46:48;;;;;;;17.27;15.83;;;4.40;1.00;4.60;98694.00;;;;4993543;28;21023;-78
2022/04/01 03:49:23;;;;;;;17.80;16.13;;;4.40;1.00;4.70;98706.00;;;;4992948;28;21377;-78
2022/04/01 03:51:55;;;;;;;16.40;15.00;;;4.50;1.00;4.70;98706.00;;;;4993200;28;20598;-79
2022/04/01 03:54:29;;;;;;;16.00;14.50;;;4.40;1.00;4.60;98708.00;;;;4994379;28;20453;-79
2022/04/01 03:57:05;;;;;;;14.50;13.20;;;4.60;1.00;4.70;98717.00;;;;4993402;28;21018;-77
2022/04/01 04:00:12;;;;;;;15.40;14.00;;;4.40;1.00;4.60;98707.00;;;;4993874;28;20501;-78
2022/04/01 04:02:44;;;;;;;14.50;13.30;;;4.40;1.00;4.60;98710.00;;;;4995078;28;20938;-77
2022/04/01 04:05:18;;;;;;;13.47;12.37;;;4.40;1.00;4.60;98711.00;;;;5009968;28;20483;-77
2022/04/01 04:07:49;;;;;;;12.37;11.27;;;4.30;1.00;4.50;98724.00;;;;4996403;28;20474;-77
2022/04/01 04:10:27;;;;;;;13.53;12.23;;;4.30;1.00;4.60;98721.00;;;;4994745;28;20457;-78
2022/04/01 04:13:27;;;;;;;13.47;12.20;;;4.30;1.00;4.50;98729.00;;;;4994853;28;20645;-79
2022/04/01 04:16:05;;;;;;;13.40;12.20;;;4.30;1.00;4.50;98700.00;;;;5017202;28;20490;-78
2022/04/01 04:18:43;;;;;;;13.27;12.10;;;4.30;1.00;4.50;98722.00;;;;5009603;28;20512;-77
2022/04/01 04:21:25;;;;;;;14.20;13.00;;;4.20;1.00;4.50;98710.00;;;;4994920;28;20453;-77
2022/04/01 04:23:58;;;;;;;13.90;12.70;;;4.20;1.00;4.50;98713.00;;;;4995116;28;20541;-78
2022/04/01 04:26:35;;;;;;;14.20;12.90;;;4.20;1.00;4.40;98726.00;;;;4994880;28;20478;-78
2022/04/01 04:29:11;;;;;;;11.73;10.63;;;4.20;1.00;4.40;98722.00;;;;5012889;28;20462;-79
2022/04/01 04:32:03;;;;;;;14.23;12.93;;;4.20;1.00;4.40;98720.00;;;;4989742;28;20461;-78
2022/04/01 04:34:39;;;;;;;11.97;10.87;;;4.20;1.00;4.20;98741.00;;;;4979330;28;20794;-80
2022/04/01 04:37:11;;;;;;;15.30;13.90;;;4.10;1.00;4.30;98749.00;;;;4992412;28;20572;-79
2022/04/01 04:39:45;;;;;;;13.87;12.60;;;4.10;1.00;4.40;98738.00;;;;4981124;28;20442;-76
2022/04/01 04:42:16;;;;;;;14.80;13.40;;;4.20;1.00;4.30;98756.00;;;;5012803;28;20478;-76
2022/04/01 04:44:46;;;;;;;13.70;12.40;;;4.10;1.00;4.20;98746.00;;;;5016972;28;20438;-77
2022/04/01 04:47:25;;;;;;;14.33;13.00;;;4.00;1.00;4.20;98742.00;;;;5003269;28;20466;-78
2022/04/01 04:49:58;;;;;;;12.90;11.70;;;4.00;1.00;4.10;98748.00;;;;4991673;28;20453;-77
2022/04/01 04:52:32;;;;;;;14.00;12.70;;;3.90;1.00;4.10;98732.00;;;;4993103;28;20493;-77
2022/04/01 04:55:05;;;;;;;16.80;15.30;;;3.90;1.00;4.10;98734.00;;;;4988616;28;20462;-78
2022/04/01 04:57:44;;;;;;;14.63;13.33;;;3.90;1.00;4.20;98745.00;;;;4995925;28;20479;-78
2022/04/01 05:00:19;;;;;;;15.13;13.60;;;3.90;1.00;4.20;98762.00;;;;4990187;28;20462;-81
2022/04/01 05:03:28;;;;;;;16.03;14.43;;;3.90;1.00;4.20;98750.00;;;;4991455;28;20473;-77
2022/04/01 05:06:06;;;;;;;15.83;14.37;;;3.90;1.00;4.00;98753.00;;;;4996030;28;20508;-77
2022/04/01 05:09:07;;;;;;;16.60;15.00;;;3.90;1.00;4.00;98770.00;;;;4984244;28;20450;-78
2022/04/01 05:11:58;;;;;;;15.53;14.13;;;3.70;1.00;4.00;98772.00;;;;4992114;28;20541;-78
2022/04/01 05:15:08;;;;;;;14.07;12.23;;;3.70;1.00;4.00;98766.00;;;;4974306;28;20932;-78
2022/04/01 05:17:39;;;;;;;16.60;14.97;;;3.80;1.00;4.10;98791.00;;;;5007906;28;20486;-79
2022/04/01 05:20:15;;;;;;;16.10;14.47;;;4.10;1.00;4.10;98774.00;;;;4992249;28;20460;-77
2022/04/01 05:23:00;;;;;;;17.53;16.00;;;3.80;1.00;4.20;98786.00;;;;5008619;28;20451;-81
2022/04/01 05:25:37;;;;;;;16.00;14.40;;;3.90;1.00;4.20;98782.00;;;;5001178;28;20497;-77
2022/04/01 05:28:22;;;;;;;15.20;13.70;;;4.00;1.00;4.20;98787.00;;;;5012127;28;20447;-76
2022/04/01 05:31:06;;;;;;;13.67;12.37;;;3.90;1.00;4.10;98807.00;;;;5016484;28;20464;-77
2022/04/01 05:33:42;;;;;;;15.17;13.70;;;4.00;1.00;4.10;98780.00;;;;5013779;28;20489;-76
2022/04/01 05:36:16;;;;;;;15.30;13.80;;;3.80;1.00;4.00;98792.00;;;;5028983;28;20501;-78
2022/04/01 05:38:47;;;;;;;15.20;13.60;;;3.80;1.00;4.00;98816.00;;;;5006127;28;20475;-77
2022/04/01 05:41:19;;;;;;;15.80;14.20;;;3.80;1.00;4.00;98809.00;;;;4997474;28;21027;-78
2022/04/01 05:43:50;;;;;;;15.27;13.80;;;3.80;1.00;4.10;98816.00;;;;4988391;28;20458;-77
2022/04/01 05:46:29;;;;;;;14.57;12.90;;;4.00;1.00;4.20;98811.00;;;;4981023;28;20505;-78
2022/04/01 05:49:03;;;;;;;16.47;14.87;;;3.90;1.00;4.10;98819.00;;;;4994693;28;20842;-80
2022/04/01 05:51:32;;;;;;;15.13;13.63;;;3.80;1.00;4.10;98817.00;;;;5005861;28;20463;-80
2022/04/01 05:54:04;;;;;;;14.47;13.17;;;3.80;1.00;4.10;98818.00;;;;5014386;28;20438;-77
2022/04/01 05:56:35;;;;;;;14.47;12.97;;;3.80;1.00;4.10;98820.00;;;;5025587;28;20470;-79
2022/04/01 05:59:04;;;;;;;14.60;12.90;;;3.80;1.00;3.90;98827.00;;;;5026046;28;20442;-75
2022/04/01 06:01:44;;;;;;;16.73;15.20;;;3.70;1.00;4.00;98824.00;;;;5012741;28;20472;-78
2022/04/01 06:05:10;;;;;;;14.60;13.20;;;4.00;1.00;4.10;98824.00;;;;4999998;28;20455;-78
2022/04/01 06:07:50;;;;;;;14.33;12.83;;;3.80;1.00;4.10;98837.00;;;;5016023;28;20473;-77
2022/04/01 06:10:31;;;;;;;15.50;13.97;;;3.80;1.00;4.10;98840.00;;;;4996904;28;20450;-80
2022/04/01 06:13:33;;;;;;;15.40;13.53;;;3.80;1.00;4.10;98856.00;;;;4997975;28;20453;-81
2022/04/01 06:16:33;;;;;;;17.23;15.47;;;3.80;1.00;4.00;98852.00;;;;5003204;28;20463;-79
2022/04/01 06:19:25;;;;;;;16.37;14.77;;;3.80;1.00;4.10;98850.00;;;;5006355;28;20497;-78
2022/04/01 06:22:04;;;;;;;13.97;12.53;;;3.80;1.00;4.10;98854.00;;;;5006067;28;20464;-77
2022/04/01 06:25:02;;;;;;;16.00;12.70;;;3.90;1.00;4.10;98857.00;;;;5001733;28;20463;-75
2022/04/01 06:27:40;;;;;;;16.50;14.93;;;3.80;1.00;4.00;98855.00;;;;5036412;28;20456;-75
2022/04/01 06:30:11;;;;;;;16.03;14.43;;;3.80;1.00;4.10;98852.00;;;;5020192;28;20466;-77
2022/04/01 06:32:56;;;;;;;14.10;12.20;;;3.80;1.00;4.10;98863.00;;;;5020544;28;20565;-78
2022/04/01 06:35:44;;;;;;;14.03;12.13;;;3.80;1.00;4.10;98871.00;;;;5012073;28;20478;-77
2022/04/01 06:38:36;;;;;;;12.63;11.23;;;3.90;1.00;4.00;98877.00;;;;4999266;28;20490;-78
2022/04/01 06:41:08;;;;;;;14.43;13.00;;;3.80;1.00;4.10;98867.00;;;;4997658;28;20454;-77
2022/04/01 06:43:59;;;;;;;13.60;11.87;;;3.80;1.00;4.10;98848.00;;;;5018406;28;20457;-78
2022/04/01 06:46:48;;;;;;;14.03;12.40;;;3.80;1.00;4.10;98875.00;;;;4997328;28;20521;-78
2022/04/01 06:49:21;;;;;;;11.93;10.83;;;3.80;1.00;4.00;98864.00;;;;5011718;28;20490;-79
2022/04/01 06:52:14;;;;;;;14.13;12.43;;;3.80;1.00;4.00;98871.00;;;;4986965;28;20457;-78
2022/04/01 06:55:01;;;;;;;13.30;12.00;;;3.80;1.00;4.20;98891.00;;;;4994350;28;20472;-78
2022/04/01 06:57:56;;;;;;;13.60;12.30;;;3.80;1.00;4.20;98898.00;;;;4998727;28;20481;-78
2022/04/01 07:00:35;;;;;;;15.77;12.53;;;3.90;1.00;4.20;98891.00;;;;5013147;28;20438;-77
2022/04/01 07:03:03;;;;;;;14.87;13.37;;;3.90;1.00;4.20;98887.00;;;;5018715;28;20427;-78
2022/04/01 07:05:34;;;;;;;13.23;9.63;;;3.90;1.00;4.20;98890.00;;;;5002885;28;20487;-79
2022/04/01 07:08:03;;;;;;;12.10;10.90;;;3.90;1.00;4.10;98893.00;;;;5001303;28;20483;-78
2022/04/01 07:10:32;;;;;;;10.10;9.20;;;3.80;1.00;4.10;98908.00;;;;4998956;28;20455;-78
2022/04/01 07:13:01;;;;;;;12.70;11.50;;;3.80;1.00;4.10;98906.00;;;;4995734;28;20493;-78
2022/04/01 07:15:29;;;;;;;13.23;10.53;;;4.00;1.00;4.10;98908.00;;;;4994092;28;20486;-77
2022/04/01 07:17:59;;;;;;;12.20;11.10;;;3.80;1.00;4.10;98902.00;;;;4996323;28;20478;-77
2022/04/01 07:20:27;;;;;;;13.60;12.17;;;4.00;1.00;4.10;98902.00;;;;5010619;28;20462;-79
2022/04/01 07:22:56;;;;;;;12.20;9.20;;;3.90;1.00;4.20;98929.00;;;;4995992;28;20458;-78
2022/04/01 07:25:25;;;;;;;12.23;10.90;;;3.90;1.00;4.20;98903.00;;;;4996180;28;20478;-79
2022/04/01 07:27:54;;;;;;;10.80;9.80;;;3.90;1.00;4.20;98902.00;;;;4996433;28;20556;-77
2022/04/01 07:30:23;;;;;;;12.77;10.00;;;4.00;1.00;4.20;98913.00;;;;4998856;28;20441;-77
2022/04/01 07:32:55;;;;;;;11.43;10.30;;;4.10;1.00;4.20;98912.00;;;;5011042;28;20463;-80
2022/04/01 07:35:26;;;;;;;10.37;9.43;;;3.90;1.00;4.30;98912.00;;;;5000736;28;20568;-77
2022/04/01 07:37:54;;;;;;;11.53;9.30;;;4.00;1.00;4.30;98927.00;;;;5000330;28;20513;-79
2022/04/01 07:40:25;;;;;;;10.33;9.33;;;4.00;1.00;4.40;98931.00;;;;4999342;28;20443;-78
2022/04/01 07:42:54;;;;;;;9.93;9.00;;;4.00;1.00;4.30;98935.00;;;;4999409;28;20820;-80
2022/04/01 07:45:24;;;;;;;11.13;9.57;;;4.00;1.00;4.30;98937.00;;;;4994483;28;20551;-78
2022/04/01 07:47:54;;;;;;;9.83;8.83;;;4.10;1.00;4.30;98928.00;;;;5003058;28;20454;-78
2022/04/01 07:50:25;;;;;;;10.40;9.40;;;4.20;1.00;4.40;98941.00;;;;5001547;28;20447;-76
2022/04/01 07:52:54;;;;;;;10.57;9.47;;;4.10;1.00;4.40;98919.00;;;;4999254;28;20485;-78
2022/04/01 07:55:23;;;;;;;10.93;9.97;;;4.10;1.00;4.50;98945.00;;;;4999526;28;20483;-80
2022/04/01 07:57:53;;;;;;;10.43;9.43;;;4.20;1.00;4.40;98936.00;;;;4995773;28;20481;-79
2022/04/01 08:00:41;;;;;;;9.17;8.07;;;4.10;1.00;4.20;98938.00;;;;4994994;28;20469;-80
2022/04/01 08:03:10;;;;;;;11.20;9.10;;;4.00;1.00;4.40;98954.00;;;;4993503;28;20567;-79
2022/04/01 08:05:41;;;;;;;10.60;9.50;;;4.10;1.00;4.40;98959.00;;;;4995986;28;20571;-78
2022/04/01 08:08:09;;;;;;;12.63;9.90;;;4.20;1.00;4.30;98966.00;;;;5000977;28;20465;-78
2022/04/01 08:10:38;;;;;;;9.83;8.27;;;4.20;1.00;4.30;98967.00;;;;5033779;28;20451;-81
2022/04/01 08:13:06;;;;;;;9.80;8.90;;;4.00;1.00;4.30;98965.00;;;;5032882;28;20453;-81
2022/04/01 08:15:35;;;;;;;9.77;8.60;;;4.10;1.00;4.30;98970.00;;;;5018722;28;20473;-79
2022/04/01 08:18:04;;;;;;;10.60;9.60;;;4.00;1.00;4.30;98972.00;;;;5000432;28;20477;-77
2022/04/01 08:20:32;;;;;;;10.93;9.93;;;4.10;1.00;4.30;98979.00;;;;4998735;28;20454;-78
2022/04/01 08:23:02;;;;;;;11.03;9.57;;;4.10;1.00;4.40;98967.00;;;;4999180;28;20552;-77
2022/04/01 08:25:30;;;;;;;10.70;9.53;;;4.20;1.00;4.40;98970.00;;;;4994950;28;20474;-78
2022/04/01 08:28:06;;;;;;;11.57;10.50;;;4.20;1.00;4.40;98986.00;;;;4996172;28;20458;-77
2022/04/01 08:30:34;;;;;;;9.93;8.90;;;4.20;1.00;4.40;98982.00;;;;4994977;28;20446;-77
2022/04/01 08:33:03;;;;;;;10.07;9.10;;;4.20;1.00;4.50;98995.00;;;;4995835;28;21368;-77
2022/04/01 08:35:33;;;;;;;10.20;8.60;;;4.20;1.00;4.30;98966.00;;;;4996617;28;20501;-79
2022/04/01 08:38:03;;;;;;;9.23;8.37;;;4.20;1.00;4.40;98983.00;;;;4994887;28;20600;-79
2022/04/01 08:40:32;;;;;;;7.00;6.30;;;4.30;1.00;4.20;98984.00;;;;4993619;28;20545;-78
2022/04/01 08:43:01;;;;;;;7.40;6.70;;;4.00;1.00;4.20;98993.00;;;;4995076;28;20446;-78
2022/04/01 08:45:34;;;;;;;10.00;8.37;;;3.90;1.00;4.30;98991.00;;;;4996385;28;20513;-79
2022/04/01 08:48:04;;;;;;;9.00;8.10;;;4.10;1.00;4.30;98989.00;;;;4992851;28;20446;-79
2022/04/01 08:50:33;;;;;;;8.03;7.00;;;4.00;1.00;4.40;98993.00;;;;5012568;28;20461;-78
2022/04/01 08:53:03;;;;;;;9.60;8.70;;;4.00;1.00;4.50;99006.00;;;;5007803;28;20462;-77
2022/04/01 08:55:32;;;;;;;9.00;8.20;;;4.20;1.00;4.60;99000.00;;;;5007486;28;20538;-77
2022/04/01 08:58:00;;;;;;;10.53;9.53;;;4.30;1.00;4.60;99020.00;;;;5010191;28;20512;-77
2022/04/01 09:00:36;;;;;;;8.40;7.60;;;4.40;1.00;4.60;99010.00;;;;5013446;28;20472;-77
2022/04/01 09:03:09;;;;;;;10.03;9.13;;;4.50;1.00;4.50;99024.00;;;;5010194;28;20477;-78
2022/04/01 09:05:39;;;;;;;8.07;7.13;;;4.30;1.00;4.40;99023.00;;;;5013636;28;20465;-77
2022/04/01 09:08:10;;;;;;;9.10;8.20;;;4.20;1.00;4.50;99000.00;;;;5011562;28;20488;-77
2022/04/01 09:10:58;;;;;;;9.50;8.50;;;4.20;1.00;4.60;99012.00;;;;5011133;28;20447;-77
2022/04/01 09:13:30;;;;;;;9.70;8.37;;;4.30;1.00;4.70;99016.00;;;;5009192;28;21208;-77
2022/04/01 09:15:59;;;;;;;9.67;8.77;;;4.40;1.00;4.70;99020.00;;;;5004746;28;20577;-77
2022/04/01 09:18:42;;;;;;;10.20;9.13;;;4.40;1.00;4.80;99022.00;;;;4994062;28;20486;-77
2022/04/01 09:21:12;;;;;;;8.60;7.73;;;4.50;1.00;4.70;99028.00;;;;4993389;28;20497;-77
2022/04/01 09:23:48;;;;;;;10.40;9.40;;;4.50;1.00;4.60;99040.00;;;;4992757;28;20469;-77
2022/04/01 09:26:22;;;;;;;10.33;9.37;;;4.40;1.00;4.70;99039.00;;;;4994910;28;20474;-76
2022/04/01 09:28:53;;;;;;;10.47;9.47;;;4.40;1.00;4.70;99031.00;;;;4992191;28;20504;-78
2022/04/01 09:31:33;;;;;;;13.10;10.43;;;4.50;1.00;4.70;99049.00;;;;4992198;28;20464;-77
2022/04/01 09:34:11;;;;;;;11.20;10.20;;;4.40;1.00;4.70;99047.00;;;;4995019;28;20460;-78
2022/04/01 09:36:43;;;;;;;12.20;10.70;;;4.40;1.00;4.60;99070.00;;;;4992940;28;20473;-78
2022/04/01 09:39:14;;;;;;;11.80;10.70;;;4.40;1.00;4.50;99059.00;;;;4993417;28;20497;-78
2022/04/01 09:41:45;;;;;;;11.73;10.53;;;4.30;1.00;4.20;99074.00;;;;4994499;28;20501;-78
2022/04/01 09:44:31;;;;;;;11.53;9.70;;;4.00;1.00;4.10;99051.00;;;;4993714;28;20481;-78
2022/04/01 09:47:03;;;;;;;11.07;9.97;;;3.90;1.00;4.20;99055.00;;;;4995301;28;20540;-78
2022/04/01 09:49:36;;;;;;;11.57;10.47;;;3.90;1.00;4.20;99053.00;;;;4993067;28;20455;-78
2022/04/01 09:52:10;;;;;;;12.07;10.87;;;3.90;1.00;4.20;99070.00;;;;4991726;28;20956;-77
2022/04/01 09:54:48;;;;;;;10.17;9.10;;;4.00;1.00;4.30;99059.00;;;;4994470;28;20452;-78
2022/04/01 09:57:18;;;;;;;11.30;10.20;;;4.00;1.00;4.20;99063.00;;;;4992758;28;20467;-77
2022/04/01 09:59:48;;;;;;;11.20;10.13;;;4.00;1.00;4.40;99065.00;;;;4994193;28;20478;-77
2022/04/01 10:02:17;;;;;;;13.27;10.80;;;4.10;1.00;4.60;99081.00;;;;4994218;28;20904;-77
2022/04/01 10:04:45;;;;;;;12.00;10.90;;;4.30;1.00;4.60;99078.00;;;;4992335;28;20921;-79
2022/04/01 10:07:14;;;;;;;12.47;11.37;;;4.30;1.00;4.30;99068.00;;;;4994143;28;20496;-78
2022/04/01 10:09:44;;;;;;;10.53;9.60;;;4.30;1.00;4.20;99078.00;;;;4994263;28;20454;-80
2022/04/01 10:12:38;;;;;;;12.27;11.07;;;3.90;1.00;4.20;99078.00;;;;4995503;28;20464;-79
2022/04/01 10:15:10;;;;;;;11.50;9.40;;;3.90;1.00;4.20;99071.00;;;;4998489;28;20450;-79
2022/04/01 10:17:55;;;;;;;9.43;8.53;;;3.90;1.00;4.20;99094.00;;;;5000737;28;21137;-79
2022/04/01 10:20:31;;;;;;;11.00;9.90;;;3.90;1.00;4.10;99075.00;;;;5019452;28;20477;-78
2022/04/01 10:23:03;;;;;;;12.60;11.40;;;3.80;1.00;4.10;99094.00;;;;5018377;28;20422;-79
2022/04/01 10:25:45;;;;;;;11.17;10.03;;;3.80;1.00;4.20;99070.00;;;;5020430;28;20454;-79
2022/04/01 10:28:17;;;;;;;11.63;10.53;;;3.80;1.00;4.20;99077.00;;;;5017524;28;20463;-79
2022/04/01 10:30:53;;;;;;;11.97;10.83;;;3.80;1.00;4.30;99071.00;;;;5016208;28;20426;-80
2022/04/01 10:33:26;;;;;;;10.97;9.90;;;4.10;1.00;4.40;99104.00;;;;5032610;28;20437;-80
2022/04/01 10:35:56;;;;;;;12.67;11.40;;;4.10;1.00;4.50;99101.00;;;;5021489;28;20484;-76
2022/04/01 10:38:33;;;;;;;11.87;10.67;;;4.30;1.00;4.50;99093.00;;;;5037721;28;20466;-79
2022/04/01 10:41:11;;;;;;;11.57;10.57;;;4.30;1.00;4.50;99083.00;;;;5020322;28;20480;-79
2022/04/01 10:43:43;;;;;;;12.77;11.13;;;4.30;1.00;4.40;99099.00;;;;5019202;28;20457;-79
2022/04/01 10:46:16;;;;;;;10.50;9.50;;;4.40;1.00;4.40;99110.00;;;;5006471;28;20485;-79
2022/04/01 10:52:06;;;;;;;11.10;10.10;;;4.00;1.00;4.20;99113.00;;;;5003515;28;20453;-78
2022/04/01 10:54:42;;;;;;;10.20;9.20;;;4.00;1.00;4.20;99101.00;;;;5004824;28;20450;-79
2022/04/01 10:57:15;;;;;;;11.40;10.30;;;3.90;1.00;4.00;99115.00;;;;5001569;28;20469;-78
2022/04/01 10:59:46;;;;;;;11.27;10.17;;;3.80;1.00;3.90;99113.00;;;;4998997;28;20916;-79
2022/04/01 11:02:19;;;;;;;10.63;9.53;;;3.70;1.00;4.00;99113.00;;;;5001663;28;20447;-77
2022/04/01 11:04:53;;;;;;;10.37;9.37;;;3.70;1.00;3.90;99125.00;;;;4998876;28;20548;-79
2022/04/01 11:07:35;;;;;;;10.40;9.47;;;3.80;1.00;4.10;99110.00;;;;5000391;28;20501;-78
2022/04/01 11:10:08;;;;;;;10.63;9.63;;;3.90;1.00;3.80;99116.00;;;;5000404;28;20461;-76
2022/04/01 11:12:41;;;;;;;8.87;7.97;;;3.60;1.00;4.00;99129.00;;;;5000993;28;20450;-76
2022/04/01 11:15:28;;;;;;;11.10;9.87;;;3.60;1.00;4.10;99123.00;;;;5002433;28;21100;-80
2022/04/01 11:18:02;;;;;;;10.13;9.23;;;3.70;1.00;4.40;99128.00;;;;5001733;28;20561;-81
2022/04/01 11:20:32;;;;;;;8.70;7.80;;;4.00;1.00;4.30;99130.00;;;;5016681;28;20482;-80
2022/04/01 11:23:10;;;;;;;8.70;7.63;;;4.00;1.00;4.10;99130.00;;;;5019886;28;20498;-79
2022/04/01 11:25:51;;;;;;;10.30;8.50;;;3.90;1.00;3.90;99139.00;;;;5017851;28;20474;-80
2022/04/01 11:28:20;;;;;;;10.33;8.90;;;3.70;1.00;3.70;99136.00;;;;5019531;28;20458;-80
2022/04/01 11:31:18;;;;;;;10.90;9.83;;;3.60;1.00;4.00;99155.00;;;;5021089;28;20536;-79
2022/04/01 11:34:01;;;;;;;9.83;8.93;;;3.70;1.00;4.10;99152.00;;;;5021135;28;20449;-79
2022/04/01 11:36:31;;;;;;;10.27;9.27;;;3.70;1.00;4.10;99144.00;;;;5019405;28;20533;-80
2022/04/01 11:39:00;;;;;;;8.67;7.77;;;3.80;1.00;3.80;99151.00;;;;5023462;28;20439;-80
2022/04/01 11:41:51;;;;;;;10.37;9.37;;;3.60;1.00;3.70;99152.00;;;;5020497;28;20453;-80
2022/04/01 11:44:19;;;;;;;10.83;9.80;;;3.50;1.00;3.70;99148.00;;;;5021832;28;20434;-79